createdAt,value
2019-03-26T00:00:57.907Z,9.47
2019-03-26T00:03:30.806Z,9.60
2019-03-26T00:06:02.773Z,9.70
2019-03-26T00:08:34.728Z,9.67
2019-03-26T00:11:06.793Z,9.40
2019-03-26T00:13:38.809Z,9.90
2019-03-26T00:16:10.862Z,9.60
2019-03-26T00:18:43.001Z,10.17
2019-03-26T00:21:14.945Z,9.50
2019-03-26T00:23:48.164Z,9.83
2019-03-26T00:26:20.148Z,9.67
2019-03-26T00:28:52.487Z,10.07
2019-03-26T00:31:24.494Z,10.97
2019-03-26T00:33:56.636Z,10.67
2019-03-26T00:36:28.775Z,10.53
2019-03-26T00:39:00.749Z,9.83
2019-03-26T00:41:32.928Z,10.13
2019-03-26T00:44:05.052Z,10.13
2019-03-26T00:46:37.037Z,9.93
2019-03-26T00:49:09.189Z,10.23
2019-03-26T00:51:41.387Z,10.27
2019-03-26T00:54:13.443Z,10.23
2019-03-26T00:56:45.628Z,10.00
2019-03-26T00:59:17.562Z,10.13
2019-03-26T01:01:49.515Z,9.93
2019-03-26T01:04:32.077Z,9.70
2019-03-26T01:06:56.248Z,9.87
2019-03-26T01:09:28.305Z,10.00
2019-03-26T01:12:01.789Z,9.90
2019-03-26T01:14:33.759Z,10.10
2019-03-26T01:17:05.681Z,9.87
2019-03-26T01:19:37.628Z,9.77
2019-03-26T01:24:32.582Z,9.97
2019-03-26T01:27:04.620Z,9.70
2019-03-26T01:29:48.079Z,9.43
2019-03-26T01:32:31.596Z,10.13
2019-03-26T01:35:03.648Z,10.10
2019-03-26T01:37:35.736Z,9.93
2019-03-26T01:40:18.698Z,10.07
2019-03-26T01:42:51.763Z,10.33
2019-03-26T01:45:34.739Z,9.97
2019-03-26T01:48:06.963Z,10.00
2019-03-26T01:50:38.950Z,9.80
2019-03-26T01:53:22.397Z,9.87
2019-03-26T01:55:54.339Z,10.67
2019-03-26T01:58:27.010Z,9.77
2019-03-26T02:01:00.705Z,9.93
2019-03-26T02:03:32.806Z,10.33
2019-03-26T02:06:04.861Z,10.70
2019-03-26T02:08:36.848Z,10.07
2019-03-26T02:11:08.760Z,10.20
2019-03-26T02:13:40.740Z,9.93
2019-03-26T02:16:12.714Z,10.10
2019-03-26T02:18:44.976Z,10.10
2019-03-26T02:21:16.854Z,10.07
2019-03-26T02:23:48.838Z,9.83
2019-03-26T02:26:20.664Z,10.00
2019-03-26T02:28:52.714Z,10.30
2019-03-26T02:31:24.748Z,10.17
2019-03-26T02:33:56.761Z,10.30
2019-03-26T02:36:28.895Z,10.10
2019-03-26T02:39:01.185Z,10.23
2019-03-26T02:41:37.770Z,9.97
2019-03-26T02:44:08.497Z,9.70
2019-03-26T02:46:40.458Z,10.27
2019-03-26T02:49:12.362Z,9.67
2019-03-26T02:51:44.329Z,10.07
2019-03-26T02:54:16.387Z,10.40
2019-03-26T02:56:49.158Z,10.57
2019-03-26T02:59:21.080Z,10.37
2019-03-26T03:01:53.052Z,10.53
2019-03-26T03:04:25.093Z,10.40
2019-03-26T03:06:56.965Z,10.80
2019-03-26T03:09:30.044Z,10.50
2019-03-26T03:12:02.014Z,10.40
2019-03-26T03:14:34.166Z,10.50
2019-03-26T03:17:06.026Z,10.70
2019-03-26T03:19:38.100Z,10.23
2019-03-26T03:22:10.166Z,10.97
2019-03-26T03:24:42.536Z,11.07
2019-03-26T03:27:14.518Z,10.57
2019-03-26T03:29:46.737Z,10.50
2019-03-26T03:32:18.904Z,10.47
2019-03-26T03:34:50.930Z,10.30
2019-03-26T03:37:23.018Z,10.27
2019-03-26T03:39:55.248Z,10.67
2019-03-26T03:42:27.280Z,11.20
2019-03-26T03:44:59.268Z,10.70
2019-03-26T03:47:33.852Z,10.57
2019-03-26T03:50:06.340Z,10.90
2019-03-26T03:52:40.837Z,10.53
2019-03-26T03:55:13.199Z,10.53
2019-03-26T03:57:48.005Z,10.50
2019-03-26T04:00:39.848Z,10.43
2019-03-26T04:03:12.106Z,11.13
2019-03-26T04:05:44.167Z,10.60
2019-03-26T04:08:16.125Z,10.40
2019-03-26T04:10:48.154Z,10.73
2019-03-26T04:13:20.652Z,10.47
2019-03-26T04:15:52.724Z,10.73
2019-03-26T04:18:24.855Z,10.17
2019-03-26T04:20:57.145Z,10.33
2019-03-26T04:23:28.973Z,10.50
2019-03-26T04:26:01.005Z,10.57
2019-03-26T04:28:32.909Z,11.00
2019-03-26T04:31:05.005Z,11.30
2019-03-26T04:33:38.060Z,11.00
2019-03-26T04:36:24.556Z,10.63
2019-03-26T04:38:43.926Z,11.40
2019-03-26T04:41:15.969Z,11.07
2019-03-26T04:43:47.938Z,11.60
2019-03-26T04:46:20.116Z,10.77
2019-03-26T04:48:52.065Z,11.07
2019-03-26T04:51:24.093Z,11.23
2019-03-26T04:53:56.129Z,11.10
2019-03-26T04:56:27.997Z,11.10
2019-03-26T04:59:00.463Z,11.10
2019-03-26T05:01:32.452Z,10.60
2019-03-26T05:04:04.452Z,11.13
2019-03-26T05:06:38.092Z,10.60
2019-03-26T05:09:10.324Z,11.10
2019-03-26T05:11:43.413Z,11.47
2019-03-26T05:14:15.336Z,11.03
2019-03-26T05:16:47.344Z,11.50
2019-03-26T05:19:19.811Z,11.13
2019-03-26T05:21:51.676Z,11.60
2019-03-26T05:24:23.549Z,12.40
2019-03-26T05:26:55.774Z,12.13
2019-03-26T05:29:27.676Z,11.50
2019-03-26T05:31:59.753Z,11.70
2019-03-26T05:34:31.782Z,11.07
2019-03-26T05:37:03.914Z,11.57
2019-03-26T05:39:35.805Z,11.50
2019-03-26T05:42:07.829Z,11.27
2019-03-26T05:44:39.790Z,11.60
2019-03-26T05:47:11.784Z,11.53
2019-03-26T05:49:44.949Z,11.50
2019-03-26T05:52:17.090Z,11.73
2019-03-26T05:54:49.200Z,11.70
2019-03-26T05:57:21.440Z,12.30
2019-03-26T05:59:53.568Z,12.50
2019-03-26T06:02:25.705Z,12.77
2019-03-26T06:04:57.652Z,13.43
2019-03-26T06:07:31.389Z,12.20
2019-03-26T06:10:03.881Z,12.63
2019-03-26T06:12:36.414Z,13.57
2019-03-26T06:15:08.761Z,14.47
2019-03-26T06:17:40.998Z,13.93
2019-03-26T06:20:13.250Z,13.30
2019-03-26T06:22:45.575Z,12.97
2019-03-26T06:25:17.536Z,13.57
2019-03-26T06:27:49.650Z,12.97
2019-03-26T06:30:21.718Z,13.10
2019-03-26T06:32:53.782Z,12.97
2019-03-26T06:35:25.889Z,12.77
2019-03-26T06:37:57.928Z,13.47
2019-03-26T06:40:29.984Z,13.97
2019-03-26T06:43:02.121Z,13.10
2019-03-26T06:45:34.148Z,13.07
2019-03-26T06:48:06.330Z,12.80
2019-03-26T06:50:38.496Z,13.10
2019-03-26T06:53:10.646Z,13.57
2019-03-26T06:55:42.621Z,13.20
2019-03-26T06:58:14.589Z,13.60
2019-03-26T07:00:47.467Z,13.60
2019-03-26T07:03:19.677Z,13.63
2019-03-26T07:05:51.860Z,13.23
2019-03-26T07:08:23.989Z,13.90
2019-03-26T07:10:55.949Z,12.63
2019-03-26T07:13:28.115Z,13.47
2019-03-26T07:16:00.321Z,13.80
2019-03-26T07:18:32.332Z,12.87
2019-03-26T07:21:04.255Z,13.00
2019-03-26T07:23:36.356Z,13.63
2019-03-26T07:26:08.281Z,13.67
2019-03-26T07:28:40.352Z,13.00
2019-03-26T07:31:12.438Z,12.93
2019-03-26T07:33:44.473Z,14.73
2019-03-26T07:36:16.553Z,15.80
2019-03-26T07:38:48.746Z,15.17
2019-03-26T07:41:20.670Z,14.37
2019-03-26T07:43:52.699Z,14.60
2019-03-26T07:46:24.730Z,13.17
2019-03-26T07:48:56.841Z,13.00
2019-03-26T07:51:28.834Z,13.10
2019-03-26T07:54:00.888Z,12.67
2019-03-26T07:56:33.280Z,12.27
2019-03-26T07:59:05.514Z,12.07
2019-03-26T08:01:38.040Z,11.97
2019-03-26T08:04:12.568Z,12.00
2019-03-26T08:06:43.906Z,12.20
2019-03-26T08:09:16.095Z,13.33
2019-03-26T08:11:48.229Z,13.50
2019-03-26T08:14:20.291Z,12.30
2019-03-26T08:16:52.229Z,12.13
2019-03-26T08:19:24.253Z,11.37
2019-03-26T08:21:56.395Z,11.93
2019-03-26T08:24:28.629Z,12.43
2019-03-26T08:27:00.587Z,12.90
2019-03-26T08:29:32.593Z,12.27
2019-03-26T08:32:04.578Z,13.40
2019-03-26T08:34:36.452Z,11.70
2019-03-26T08:37:08.418Z,11.83
2019-03-26T08:39:40.540Z,12.53
2019-03-26T08:42:12.474Z,11.90
2019-03-26T08:44:44.701Z,11.60
2019-03-26T08:47:16.861Z,11.27
2019-03-26T08:49:49.445Z,11.57
2019-03-26T08:52:21.394Z,11.53
2019-03-26T08:54:53.512Z,11.77
2019-03-26T08:57:25.439Z,11.50
2019-03-26T08:59:57.562Z,12.57
2019-03-26T09:02:30.574Z,12.33
2019-03-26T09:05:02.544Z,11.43
2019-03-26T09:07:34.514Z,11.63
2019-03-26T09:10:08.535Z,10.43
2019-03-26T09:12:40.552Z,10.77
2019-03-26T09:15:14.762Z,10.07
2019-03-26T09:17:46.960Z,10.50
2019-03-26T09:20:19.286Z,10.47
2019-03-26T09:22:51.436Z,10.27
2019-03-26T09:25:23.680Z,9.70
2019-03-26T09:27:55.664Z,10.50
2019-03-26T09:30:27.726Z,10.50
2019-03-26T09:32:59.992Z,10.20
2019-03-26T09:35:32.067Z,10.53
2019-03-26T09:38:04.148Z,10.13
2019-03-26T09:40:36.305Z,10.37
2019-03-26T09:43:08.453Z,10.10
2019-03-26T09:45:40.729Z,10.57
2019-03-26T09:48:12.734Z,9.63
2019-03-26T09:50:46.039Z,10.33
2019-03-26T09:53:18.318Z,10.33
2019-03-26T09:55:50.328Z,10.43
2019-03-26T09:58:23.184Z,10.20
2019-03-26T10:00:55.177Z,10.60
2019-03-26T10:03:27.196Z,10.83
2019-03-26T10:05:59.404Z,10.87
2019-03-26T10:08:31.436Z,10.13
2019-03-26T10:11:03.518Z,10.73
2019-03-26T10:13:36.439Z,10.27
2019-03-26T10:16:08.598Z,10.30
2019-03-26T10:18:40.631Z,10.13
2019-03-26T10:21:13.750Z,10.67
2019-03-26T10:23:47.280Z,10.03
2019-03-26T10:26:20.647Z,10.03
2019-03-26T10:28:52.618Z,10.10
2019-03-26T10:31:24.557Z,10.07
2019-03-26T10:33:56.621Z,10.67
2019-03-26T10:36:28.712Z,10.03
2019-03-26T10:39:05.811Z,10.40
2019-03-26T10:41:35.432Z,11.10
2019-03-26T10:44:07.520Z,10.13
2019-03-26T10:46:39.633Z,10.37
2019-03-26T10:49:12.042Z,10.73
2019-03-26T10:51:44.249Z,10.60
2019-03-26T10:54:16.223Z,10.37
2019-03-26T10:56:48.740Z,10.97
2019-03-26T10:59:20.909Z,10.47
2019-03-26T11:01:52.961Z,11.20
2019-03-26T11:04:25.422Z,10.27
2019-03-26T11:06:57.757Z,10.60
2019-03-26T11:09:29.866Z,11.07
2019-03-26T11:12:01.979Z,11.40
2019-03-26T11:14:36.117Z,10.97
2019-03-26T11:17:09.169Z,10.83
2019-03-26T11:19:41.289Z,11.20
2019-03-26T11:22:13.315Z,11.20
2019-03-26T11:24:45.305Z,11.03
2019-03-26T11:27:17.327Z,10.80
2019-03-26T11:29:49.903Z,10.53
2019-03-26T11:32:22.043Z,10.10
2019-03-26T11:34:54.123Z,10.50
2019-03-26T11:37:26.289Z,10.03
2019-03-26T11:39:58.251Z,10.83
2019-03-26T11:42:30.539Z,10.17
2019-03-26T11:45:03.561Z,9.63
2019-03-26T11:47:35.654Z,9.13
2019-03-26T11:50:10.348Z,9.50
2019-03-26T11:52:42.505Z,9.60
2019-03-26T11:55:14.748Z,9.40
2019-03-26T11:57:46.908Z,9.70
2019-03-26T12:00:23.673Z,9.67
2019-03-26T12:02:55.629Z,8.80
2019-03-26T12:05:27.999Z,9.30
2019-03-26T12:08:00.331Z,9.90
2019-03-26T12:10:32.364Z,9.13
2019-03-26T12:13:04.514Z,9.60
2019-03-26T12:15:36.457Z,9.70
2019-03-26T12:18:08.556Z,9.70
2019-03-26T12:20:40.705Z,9.53
2019-03-26T12:23:12.967Z,9.87
2019-03-26T12:25:45.040Z,8.80
2019-03-26T12:28:17.399Z,9.47
2019-03-26T12:30:49.600Z,9.60
2019-03-26T12:35:59.238Z,9.83
2019-03-26T12:38:31.543Z,9.70
2019-03-26T12:41:03.609Z,9.17
2019-03-26T12:43:35.630Z,8.73
2019-03-26T12:46:07.886Z,9.33
2019-03-26T12:48:39.969Z,9.30
2019-03-26T12:51:12.034Z,8.43
2019-03-26T12:53:44.050Z,8.03
2019-03-26T12:56:16.148Z,8.50
2019-03-26T12:58:48.466Z,8.37
2019-03-26T13:01:20.807Z,8.50
2019-03-26T13:03:52.972Z,7.73
2019-03-26T13:06:25.072Z,7.60
2019-03-26T13:08:57.130Z,7.83
2019-03-26T13:11:29.335Z,8.03
2019-03-26T13:14:01.310Z,8.07
2019-03-26T13:16:33.573Z,7.83
2019-03-26T13:19:05.710Z,7.70
2019-03-26T13:21:37.806Z,8.00
2019-03-26T13:24:11.438Z,7.70
2019-03-26T13:26:43.685Z,8.07
2019-03-26T13:29:16.041Z,8.50
2019-03-26T13:31:48.371Z,7.93
2019-03-26T13:34:20.368Z,8.27
2019-03-26T13:36:52.319Z,8.53
2019-03-26T13:39:24.482Z,8.50
2019-03-26T13:41:56.653Z,8.80
2019-03-26T13:44:28.881Z,8.67
2019-03-26T13:47:01.832Z,8.50
2019-03-26T13:49:33.896Z,8.70
2019-03-26T13:52:05.924Z,9.33
2019-03-26T13:54:37.933Z,7.50
2019-03-26T13:57:10.584Z,7.47
2019-03-26T13:59:42.949Z,7.97
2019-03-26T14:02:15.206Z,8.00
2019-03-26T14:04:47.357Z,7.60
2019-03-26T14:07:19.447Z,7.53
2019-03-26T14:09:51.594Z,7.70
2019-03-26T14:12:23.782Z,7.87
2019-03-26T14:14:56.126Z,8.07
2019-03-26T14:17:28.337Z,7.70
2019-03-26T14:20:00.376Z,7.67
2019-03-26T14:22:32.536Z,7.07
2019-03-26T14:25:04.471Z,7.73
2019-03-26T14:27:36.579Z,7.70
2019-03-26T14:30:10.749Z,7.67
2019-03-26T14:32:42.822Z,7.70
2019-03-26T14:35:14.937Z,7.40
2019-03-26T14:37:51.432Z,7.97
2019-03-26T14:40:20.788Z,7.67
2019-03-26T14:42:52.892Z,8.00
2019-03-26T14:45:24.971Z,8.10
2019-03-26T14:47:58.013Z,8.27
2019-03-26T14:50:30.116Z,8.53
2019-03-26T14:53:02.831Z,8.30
2019-03-26T14:55:35.457Z,8.60
2019-03-26T14:58:08.237Z,8.53
2019-03-26T15:00:40.584Z,9.13
2019-03-26T15:03:12.768Z,8.93
2019-03-26T15:05:44.747Z,9.20
2019-03-26T15:08:16.754Z,11.70
2019-03-26T15:10:49.333Z,9.00
2019-03-26T15:13:21.572Z,8.97
2019-03-26T15:15:54.569Z,8.40
2019-03-26T15:18:27.272Z,8.27
2019-03-26T15:20:59.901Z,8.60
2019-03-26T15:23:32.423Z,8.50
2019-03-26T15:26:04.436Z,8.40
2019-03-26T15:28:36.890Z,8.57
2019-03-26T15:31:09.101Z,8.83
2019-03-26T15:33:41.237Z,8.47
2019-03-26T15:36:13.445Z,8.40
2019-03-26T15:38:45.438Z,7.90
2019-03-26T15:41:21.908Z,8.40
2019-03-26T15:43:51.493Z,8.10
2019-03-26T15:46:23.521Z,7.83
2019-03-26T15:48:55.573Z,8.40
2019-03-26T15:51:27.549Z,8.43
2019-03-26T15:53:59.492Z,8.37
2019-03-26T15:56:31.428Z,8.20
2019-03-26T15:59:03.509Z,8.50
2019-03-26T16:01:35.394Z,8.30
2019-03-26T16:04:07.569Z,8.30
2019-03-26T16:06:39.758Z,8.53
2019-03-26T16:09:11.971Z,8.40
2019-03-26T16:11:44.257Z,8.73
2019-03-26T16:14:16.835Z,8.50
2019-03-26T16:16:49.290Z,8.70
2019-03-26T16:19:32.046Z,8.43
2019-03-26T16:21:55.129Z,8.73
2019-03-26T16:24:27.524Z,8.90
2019-03-26T16:26:59.628Z,8.33
2019-03-26T16:29:31.756Z,8.67
2019-03-26T16:32:04.632Z,8.47
2019-03-26T16:34:36.787Z,9.03
2019-03-26T16:37:08.699Z,8.90
2019-03-26T16:39:40.897Z,9.10
2019-03-26T16:42:13.058Z,8.73
2019-03-26T16:44:45.215Z,9.53
2019-03-26T16:47:17.238Z,9.30
2019-03-26T16:49:49.276Z,9.30
2019-03-26T16:52:21.391Z,8.83
2019-03-26T16:54:53.244Z,10.23
2019-03-26T16:57:25.121Z,9.20
2019-03-26T16:59:57.036Z,9.13
2019-03-26T17:02:28.868Z,8.87
2019-03-26T17:05:01.131Z,9.20
2019-03-26T17:07:33.227Z,9.37
2019-03-26T17:10:05.805Z,9.63
2019-03-26T17:12:37.721Z,9.87
2019-03-26T17:15:10.061Z,9.43
2019-03-26T17:17:42.013Z,9.47
2019-03-26T17:20:14.115Z,9.80
2019-03-26T17:22:46.228Z,9.50
2019-03-26T17:25:18.141Z,9.60
2019-03-26T17:27:50.112Z,9.80
2019-03-26T17:30:22.012Z,10.67
2019-03-26T17:32:54.347Z,10.77
2019-03-26T17:35:26.429Z,11.10
2019-03-26T17:37:59.833Z,10.67
2019-03-26T17:40:32.231Z,10.87
2019-03-26T17:43:04.368Z,11.80
2019-03-26T17:45:36.457Z,10.70
2019-03-26T17:48:08.490Z,10.50
2019-03-26T17:50:41.818Z,10.93
2019-03-26T17:53:13.985Z,10.87
2019-03-26T17:55:46.030Z,10.47
2019-03-26T17:58:18.982Z,10.87
2019-03-26T18:00:51.120Z,10.60
2019-03-26T18:03:26.828Z,10.33
2019-03-26T18:05:57.026Z,10.40
2019-03-26T18:08:29.285Z,10.47
2019-03-26T18:11:01.412Z,10.03
2019-03-26T18:13:33.520Z,10.00
2019-03-26T18:16:06.481Z,10.70
2019-03-26T18:18:38.528Z,9.60
2019-03-26T18:21:10.559Z,10.63
2019-03-26T18:23:42.536Z,9.77
2019-03-26T18:26:14.658Z,11.40
2019-03-26T18:28:46.746Z,15.37
2019-03-26T18:31:18.738Z,13.80
2019-03-26T18:33:50.606Z,11.03
2019-03-26T18:36:22.689Z,10.00
2019-03-26T18:38:54.837Z,9.70
2019-03-26T18:41:27.336Z,9.33
2019-03-26T18:43:59.401Z,10.13
2019-03-26T18:46:31.824Z,9.60
2019-03-26T18:49:03.763Z,10.20
2019-03-26T18:51:35.768Z,9.53
2019-03-26T18:54:07.803Z,10.53
2019-03-26T18:56:40.174Z,9.47
2019-03-26T18:59:12.492Z,9.87
2019-03-26T19:01:44.514Z,10.47
2019-03-26T19:04:16.578Z,9.90
2019-03-26T19:06:49.820Z,10.83
2019-03-26T19:09:23.432Z,9.57
2019-03-26T19:11:57.510Z,10.87
2019-03-26T19:14:29.694Z,11.20
2019-03-26T19:17:02.814Z,10.53
2019-03-26T19:19:35.797Z,10.30
2019-03-26T19:22:07.916Z,10.57
2019-03-26T19:24:41.824Z,10.00
2019-03-26T19:27:17.189Z,11.13
2019-03-26T19:29:49.380Z,10.50
2019-03-26T19:32:21.489Z,12.80
2019-03-26T19:34:53.701Z,11.33
2019-03-26T19:37:25.781Z,11.53
2019-03-26T19:39:57.910Z,10.83
2019-03-26T19:42:32.411Z,12.17
2019-03-26T19:45:05.067Z,12.60
2019-03-26T19:47:37.305Z,12.37
2019-03-26T19:50:09.494Z,11.70
2019-03-26T19:52:42.197Z,11.90
2019-03-26T19:55:16.126Z,12.97
2019-03-26T19:57:48.314Z,11.23
2019-03-26T20:00:20.601Z,12.00
2019-03-26T20:02:52.676Z,12.07
2019-03-26T20:05:25.159Z,11.27
2019-03-26T20:07:59.482Z,12.30
2019-03-26T20:10:34.699Z,13.03
2019-03-26T20:13:07.033Z,12.97
2019-03-26T20:15:39.631Z,15.93
2019-03-26T20:18:12.508Z,12.37
2019-03-26T20:20:44.762Z,11.87
2019-03-26T20:23:17.558Z,12.20
2019-03-26T20:25:50.193Z,12.53
2019-03-26T20:28:22.510Z,12.70
2019-03-26T20:30:54.773Z,12.20
2019-03-26T20:33:27.654Z,12.13
2019-03-26T20:35:59.774Z,11.70
2019-03-26T20:38:32.857Z,12.57
2019-03-26T20:41:11.237Z,11.73
2019-03-26T20:43:46.103Z,11.60
2019-03-26T20:46:19.399Z,11.97
2019-03-26T20:48:52.639Z,12.00
2019-03-26T20:51:25.016Z,11.67
2019-03-26T20:53:57.250Z,12.40
2019-03-26T20:56:29.749Z,10.53
2019-03-26T20:59:05.261Z,12.33
2019-03-26T21:01:40.113Z,10.60
2019-03-26T21:04:13.304Z,10.97
2019-03-26T21:06:45.537Z,10.17
2019-03-26T21:09:17.465Z,10.50
2019-03-26T21:11:49.724Z,10.77
2019-03-26T21:14:22.399Z,10.60
2019-03-26T21:16:54.485Z,10.70
2019-03-26T21:19:26.679Z,10.43
2019-03-26T21:21:58.838Z,10.67
2019-03-26T21:24:30.965Z,10.63
2019-03-26T21:27:02.946Z,10.83
2019-03-26T21:29:35.049Z,10.50
2019-03-26T21:32:07.451Z,10.30
2019-03-26T21:34:39.991Z,10.40
2019-03-26T21:37:11.848Z,10.13
2019-03-26T21:39:43.850Z,10.73
2019-03-26T21:42:15.925Z,11.10
2019-03-26T21:44:48.086Z,11.20
2019-03-26T21:47:20.737Z,10.47
2019-03-26T21:49:53.046Z,10.60
2019-03-26T21:52:24.875Z,11.13
2019-03-26T21:54:57.306Z,10.93
2019-03-26T21:57:29.884Z,11.17
2019-03-26T22:00:06.478Z,10.83
2019-03-26T22:02:40.844Z,12.60
2019-03-26T22:05:17.007Z,13.73
2019-03-26T22:07:51.839Z,11.60
2019-03-26T22:10:24.162Z,10.97
2019-03-26T22:12:56.778Z,11.00
2019-03-26T22:15:29.382Z,10.77
2019-03-26T22:18:02.046Z,11.20
2019-03-26T22:20:35.243Z,11.37
2019-03-26T22:23:08.342Z,11.27
2019-03-26T22:25:41.223Z,10.87
2019-03-26T22:28:13.339Z,10.90
2019-03-26T22:30:48.058Z,11.40
2019-03-26T22:33:20.189Z,11.13
2019-03-26T22:35:55.795Z,11.17
2019-03-26T22:38:32.083Z,11.13
2019-03-26T22:41:04.533Z,11.53
2019-03-26T22:43:36.594Z,12.23
2019-03-26T22:46:08.536Z,12.33
2019-03-26T22:48:40.825Z,12.27
2019-03-26T22:51:13.164Z,12.13
2019-03-26T22:53:45.013Z,12.47
2019-03-26T22:56:17.007Z,11.90
2019-03-26T22:58:49.187Z,12.40
2019-03-26T23:01:21.392Z,12.30
2019-03-26T23:03:54.319Z,12.60
2019-03-26T23:06:26.682Z,11.63
2019-03-26T23:08:58.748Z,11.87
2019-03-26T23:11:30.887Z,12.00
2019-03-26T23:14:02.977Z,12.23
2019-03-26T23:16:34.991Z,11.17
2019-03-26T23:19:07.127Z,12.20
2019-03-26T23:21:39.453Z,11.83
2019-03-26T23:24:11.503Z,11.83
2019-03-26T23:26:43.456Z,12.57
2019-03-26T23:29:15.929Z,12.60
2019-03-26T23:31:48.050Z,12.00
2019-03-26T23:34:20.082Z,12.57
2019-03-26T23:36:52.033Z,11.77
2019-03-26T23:39:24.036Z,12.63
2019-03-26T23:41:56.397Z,11.77
2019-03-26T23:44:28.474Z,12.57
2019-03-26T23:47:01.272Z,12.00
2019-03-26T23:49:33.567Z,12.23
2019-03-26T23:52:05.990Z,12.10
2019-03-26T23:54:38.262Z,12.77
2019-03-26T23:57:10.693Z,12.27
2019-03-26T23:59:42.644Z,12.30
